sensor_id;sensor_type;location;lat;lon;timestamp;pressure;altitude;pressure_sealevel;temperature;humidity
72438;BME280;60444;43.534;-5.674;2023-05-10T00:00:20;102668.13;;;15.56;100.00
72438;BME280;60444;43.534;-5.674;2023-05-10T00:02:47;102665.44;;;15.54;100.00
72438;BME280;60444;43.534;-5.674;2023-05-10T00:05:13;102658.28;;;15.52;100.00
72438;BME280;60444;43.534;-5.674;2023-05-10T00:07:39;102637.88;;;15.39;100.00
72438;BME280;60444;43.534;-5.674;2023-05-10T00:10:04;102661.88;;;15.52;100.00
72438;BME280;60444;43.534;-5.674;2023-05-10T00:12:30;102640.50;;;15.42;100.00
72438;BME280;60444;43.534;-5.674;2023-05-10T00:14:56;102646.84;;;15.42;100.00
72438;BME280;60444;43.534;-5.674;2023-05-10T00:17:21;102637.16;;;15.34;100.00
72438;BME280;60444;43.534;-5.674;2023-05-10T00:19:47;102635.56;;;15.28;100.00
72438;BME280;60444;43.534;-5.674;2023-05-10T00:22:12;102656.81;;;15.43;100.00
72438;BME280;60444;43.534;-5.674;2023-05-10T00:24:38;102640.81;;;15.33;100.00
72438;BME280;60444;43.534;-5.674;2023-05-10T00:27:03;102646.25;;;15.34;100.00
72438;BME280;60444;43.534;-5.674;2023-05-10T00:29:29;102647.03;;;15.36;100.00
72438;BME280;60444;43.534;-5.674;2023-05-10T00:31:54;102638.16;;;15.31;100.00
72438;BME280;60444;43.534;-5.674;2023-05-10T00:34:20;102637.25;;;15.31;100.00
72438;BME280;60444;43.534;-5.674;2023-05-10T00:36:46;102634.31;;;15.37;100.00
72438;BME280;60444;43.534;-5.674;2023-05-10T00:39:11;102640.78;;;15.34;100.00
72438;BME280;60444;43.534;-5.674;2023-05-10T00:41:37;102631.81;;;15.31;100.00
72438;BME280;60444;43.534;-5.674;2023-05-10T00:44:03;102631.81;;;15.31;100.00
72438;BME280;60444;43.534;-5.674;2023-05-10T00:46:29;102616.72;;;15.22;100.00
72438;BME280;60444;43.534;-5.674;2023-05-10T00:48:55;102616.78;;;15.21;100.00
72438;BME280;60444;43.534;-5.674;2023-05-10T00:51:21;102619.38;;;15.24;100.00
72438;BME280;60444;43.534;-5.674;2023-05-10T00:53:48;102620.47;;;15.20;100.00
72438;BME280;60444;43.534;-5.674;2023-05-10T00:56:13;102614.19;;;15.18;100.00
72438;BME280;60444;43.534;-5.674;2023-05-10T00:58:40;102594.50;;;15.10;100.00
72438;BME280;60444;43.534;-5.674;2023-05-10T01:01:06;102606.09;;;15.15;100.00
72438;BME280;60444;43.534;-5.674;2023-05-10T01:03:32;102590.94;;;15.08;100.00
72438;BME280;60444;43.534;-5.674;2023-05-10T01:05:58;102594.44;;;15.11;100.00
72438;BME280;60444;43.534;-5.674;2023-05-10T01:08:24;102588.28;;;15.06;100.00
72438;BME280;60444;43.534;-5.674;2023-05-10T01:10:51;102602.91;;;15.04;100.00
72438;BME280;60444;43.534;-5.674;2023-05-10T01:13:28;102572.50;;;14.91;100.00
72438;BME280;60444;43.534;-5.674;2023-05-10T01:15:56;102600.25;;;15.02;100.00
72438;BME280;60444;43.534;-5.674;2023-05-10T01:18:22;102599.47;;;14.99;100.00
72438;BME280;60444;43.534;-5.674;2023-05-10T01:20:55;102597.72;;;14.98;100.00
72438;BME280;60444;43.534;-5.674;2023-05-10T01:23:35;102549.88;;;14.68;100.00
72438;BME280;60444;43.534;-5.674;2023-05-10T01:26:16;102574.66;;;14.83;100.00
72438;BME280;60444;43.534;-5.674;2023-05-10T01:34:21;102597.53;;;15.02;100.00
72438;BME280;60444;43.534;-5.674;2023-05-10T01:36:55;102570.13;;;14.84;100.00
72438;BME280;60444;43.534;-5.674;2023-05-10T01:39:24;102588.63;;;14.97;100.00
72438;BME280;60444;43.534;-5.674;2023-05-10T01:42:03;102583.38;;;14.93;100.00
72438;BME280;60444;43.534;-5.674;2023-05-10T01:44:56;102566.56;;;14.82;100.00
72438;BME280;60444;43.534;-5.674;2023-05-10T01:47:26;102583.47;;;14.90;100.00
72438;BME280;60444;43.534;-5.674;2023-05-10T01:49:59;102568.09;;;14.89;100.00
72438;BME280;60444;43.534;-5.674;2023-05-10T01:52:31;102577.16;;;14.89;100.00
72438;BME280;60444;43.534;-5.674;2023-05-10T01:55:04;102582.66;;;14.88;100.00
72438;BME280;60444;43.534;-5.674;2023-05-10T01:57:35;102584.44;;;14.89;100.00
72438;BME280;60444;43.534;-5.674;2023-05-10T02:00:03;102567.56;;;14.79;100.00
72438;BME280;60444;43.534;-5.674;2023-05-10T02:02:31;102573.84;;;14.81;100.00
72438;BME280;60444;43.534;-5.674;2023-05-10T02:04:58;102561.28;;;14.77;100.00
72438;BME280;60444;43.534;-5.674;2023-05-10T02:07:26;102579.94;;;14.88;100.00
72438;BME280;60444;43.534;-5.674;2023-05-10T02:09:54;102584.31;;;14.92;100.00
72438;BME280;60444;43.534;-5.674;2023-05-10T02:12:22;102589.91;;;14.89;100.00
72438;BME280;60444;43.534;-5.674;2023-05-10T02:14:50;102579.47;;;15.00;100.00
72438;BME280;60444;43.534;-5.674;2023-05-10T02:17:18;102576.28;;;14.89;100.00
72438;BME280;60444;43.534;-5.674;2023-05-10T02:19:46;102565.38;;;14.89;100.00
72438;BME280;60444;43.534;-5.674;2023-05-10T02:22:12;102575.97;;;14.96;100.00
72438;BME280;60444;43.534;-5.674;2023-05-10T02:24:39;102578.56;;;14.99;100.00
72438;BME280;60444;43.534;-5.674;2023-05-10T02:27:06;102568.88;;;14.92;100.00
72438;BME280;60444;43.534;-5.674;2023-05-10T02:29:32;102551.91;;;14.84;100.00
72438;BME280;60444;43.534;-5.674;2023-05-10T02:31:59;102570.81;;;14.89;100.00
72438;BME280;60444;43.534;-5.674;2023-05-10T02:34:26;102542.97;;;14.81;100.00
72438;BME280;60444;43.534;-5.674;2023-05-10T02:36:54;102569.78;;;14.91;100.00
72438;BME280;60444;43.534;-5.674;2023-05-10T02:39:21;102577.09;;;14.91;100.00
72438;BME280;60444;43.534;-5.674;2023-05-10T02:41:48;102536.94;;;14.73;100.00
72438;BME280;60444;43.534;-5.674;2023-05-10T02:44:18;102544.16;;;14.74;100.00
72438;BME280;60444;43.534;-5.674;2023-05-10T02:46:45;102535.97;;;14.74;100.00
72438;BME280;60444;43.534;-5.674;2023-05-10T02:49:11;102568.25;;;14.84;100.00
72438;BME280;60444;43.534;-5.674;2023-05-10T02:51:41;102562.09;;;14.79;100.00
72438;BME280;60444;43.534;-5.674;2023-05-10T02:54:15;102544.06;;;14.77;100.00
72438;BME280;60444;43.534;-5.674;2023-05-10T02:56:59;102567.19;;;14.88;100.00
72438;BME280;60444;43.534;-5.674;2023-05-10T02:59:26;102546.03;;;14.72;100.00
72438;BME280;60444;43.534;-5.674;2023-05-10T03:01:52;102567.38;;;14.84;100.00
72438;BME280;60444;43.534;-5.674;2023-05-10T03:04:18;102542.69;;;14.65;100.00
72438;BME280;60444;43.534;-5.674;2023-05-10T03:06:44;102562.81;;;14.84;100.00
72438;BME280;60444;43.534;-5.674;2023-05-10T03:09:10;102553.88;;;14.81;100.00
72438;BME280;60444;43.534;-5.674;2023-05-10T03:11:55;102533.56;;;14.66;100.00
72438;BME280;60444;43.534;-5.674;2023-05-10T03:17:25;102545.94;;;14.75;100.00
72438;BME280;60444;43.534;-5.674;2023-05-10T03:19:58;102545.41;;;14.65;100.00
72438;BME280;60444;43.534;-5.674;2023-05-10T03:22:44;102520.63;;;14.48;100.00
72438;BME280;60444;43.534;-5.674;2023-05-10T03:25:11;102541.31;;;14.53;100.00
72438;BME280;60444;43.534;-5.674;2023-05-10T03:27:40;102516.44;;;14.39;100.00
72438;BME280;60444;43.534;-5.674;2023-05-10T03:30:11;102558.25;;;14.62;100.00
72438;BME280;60444;43.534;-5.674;2023-05-10T03:32:38;102543.09;;;14.54;100.00
72438;BME280;60444;43.534;-5.674;2023-05-10T03:35:08;102558.38;;;14.59;100.00
72438;BME280;60444;43.534;-5.674;2023-05-10T03:37:34;102551.97;;;14.60;100.00
72438;BME280;60444;43.534;-5.674;2023-05-10T03:39:59;102527.81;;;14.50;100.00
72438;BME280;60444;43.534;-5.674;2023-05-10T03:42:25;102535.97;;;14.50;100.00
72438;BME280;60444;43.534;-5.674;2023-05-10T03:44:50;102550.84;;;14.65;100.00
72438;BME280;60444;43.534;-5.674;2023-05-10T03:47:16;102566.44;;;14.62;100.00
72438;BME280;60444;43.534;-5.674;2023-05-10T03:49:41;102546.41;;;14.63;100.00
72438;BME280;60444;43.534;-5.674;2023-05-10T03:52:07;102566.22;;;14.68;100.00
72438;BME280;60444;43.534;-5.674;2023-05-10T03:54:32;102546.75;;;14.53;100.00
72438;BME280;60444;43.534;-5.674;2023-05-10T03:56:58;102557.13;;;14.67;100.00
72438;BME280;60444;43.534;-5.674;2023-05-10T03:59:23;102563.34;;;14.71;100.00
72438;BME280;60444;43.534;-5.674;2023-05-10T04:01:49;102560.97;;;14.62;100.00
72438;BME280;60444;43.534;-5.674;2023-05-10T04:04:14;102543.03;;;14.56;100.00
72438;BME280;60444;43.534;-5.674;2023-05-10T04:06:40;102555.34;;;14.66;100.00
72438;BME280;60444;43.534;-5.674;2023-05-10T04:09:06;102527.03;;;14.47;100.00
72438;BME280;60444;43.534;-5.674;2023-05-10T04:11:31;102520.69;;;14.46;100.00
72438;BME280;60444;43.534;-5.674;2023-05-10T04:13:57;102550.09;;;14.62;100.00
72438;BME280;60444;43.534;-5.674;2023-05-10T04:16:22;102526.28;;;14.43;100.00
72438;BME280;60444;43.534;-5.674;2023-05-10T04:18:48;102554.63;;;14.61;100.00
72438;BME280;60444;43.534;-5.674;2023-05-10T04:21:14;102549.31;;;14.58;100.00
72438;BME280;60444;43.534;-5.674;2023-05-10T04:23:40;102530.47;;;14.52;100.00
72438;BME280;60444;43.534;-5.674;2023-05-10T04:26:06;102536.88;;;14.51;100.00
72438;BME280;60444;43.534;-5.674;2023-05-10T04:28:32;102538.78;;;14.49;100.00
72438;BME280;60444;43.534;-5.674;2023-05-10T04:31:05;102545.75;;;14.56;100.00
72438;BME280;60444;43.534;-5.674;2023-05-10T04:33:31;102508.31;;;14.38;100.00
72438;BME280;60444;43.534;-5.674;2023-05-10T04:35:57;102536.09;;;14.47;100.00
72438;BME280;60444;43.534;-5.674;2023-05-10T04:38:22;102556.66;;;14.56;100.00
72438;BME280;60444;43.534;-5.674;2023-05-10T04:40:48;102540.66;;;14.47;100.00
72438;BME280;60444;43.534;-5.674;2023-05-10T04:43:13;102524.78;;;14.35;100.00
72438;BME280;60444;43.534;-5.674;2023-05-10T04:45:39;102516.84;;;14.29;100.00
72438;BME280;60444;43.534;-5.674;2023-05-10T04:48:04;102542.72;;;14.40;100.00
72438;BME280;60444;43.534;-5.674;2023-05-10T04:50:30;102525.91;;;14.29;100.00
72438;BME280;60444;43.534;-5.674;2023-05-10T04:52:56;102512.75;;;14.16;100.00
72438;BME280;60444;43.534;-5.674;2023-05-10T04:55:22;102484.38;;;13.98;100.00
72438;BME280;60444;43.534;-5.674;2023-05-10T04:57:48;102493.31;;;14.02;100.00
72438;BME280;60444;43.534;-5.674;2023-05-10T05:00:14;102516.75;;;14.06;100.00
72438;BME280;60444;43.534;-5.674;2023-05-10T05:02:42;102546.78;;;14.29;100.00
72438;BME280;60444;43.534;-5.674;2023-05-10T05:05:09;102550.28;;;14.32;100.00
72438;BME280;60444;43.534;-5.674;2023-05-10T05:07:35;102529.00;;;14.19;100.00
72438;BME280;60444;43.534;-5.674;2023-05-10T05:10:00;102549.88;;;14.18;100.00
72438;BME280;60444;43.534;-5.674;2023-05-10T05:12:25;102548.06;;;14.17;100.00
72438;BME280;60444;43.534;-5.674;2023-05-10T05:14:51;102553.56;;;14.16;100.00
72438;BME280;60444;43.534;-5.674;2023-05-10T05:17:16;102545.41;;;14.16;100.00
72438;BME280;60444;43.534;-5.674;2023-05-10T05:19:42;102541.19;;;14.07;100.00
72438;BME280;60444;43.534;-5.674;2023-05-10T05:22:07;102528.75;;;14.00;100.00
72438;BME280;60444;43.534;-5.674;2023-05-10T05:24:38;102548.41;;;14.08;100.00
72438;BME280;60444;43.534;-5.674;2023-05-10T05:27:04;102559.28;;;14.08;100.00
72438;BME280;60444;43.534;-5.674;2023-05-10T05:29:29;102539.97;;;13.91;100.00
72438;BME280;60444;43.534;-5.674;2023-05-10T05:31:55;102561.22;;;14.05;100.00
72438;BME280;60444;43.534;-5.674;2023-05-10T05:34:20;102546.31;;;13.92;100.00
72438;BME280;60444;43.534;-5.674;2023-05-10T05:36:47;102541.97;;;13.85;100.00
72438;BME280;60444;43.534;-5.674;2023-05-10T05:39:12;102571.00;;;14.10;100.00
72438;BME280;60444;43.534;-5.674;2023-05-10T05:41:38;102547.56;;;14.06;100.00
72438;BME280;60444;43.534;-5.674;2023-05-10T05:44:03;102585.25;;;14.18;100.00
72438;BME280;60444;43.534;-5.674;2023-05-10T05:46:29;102577.91;;;14.20;100.00
72438;BME280;60444;43.534;-5.674;2023-05-10T05:48:55;102585.34;;;14.15;100.00
72438;BME280;60444;43.534;-5.674;2023-05-10T05:51:20;102579.75;;;14.20;100.00
72438;BME280;60444;43.534;-5.674;2023-05-10T05:53:46;102587.69;;;14.26;100.00
72438;BME280;60444;43.534;-5.674;2023-05-10T05:56:11;102562.19;;;14.04;100.00
72438;BME280;60444;43.534;-5.674;2023-05-10T05:58:37;102569.13;;;14.12;100.00
72438;BME280;60444;43.534;-5.674;2023-05-10T06:01:02;102594.03;;;14.26;100.00
72438;BME280;60444;43.534;-5.674;2023-05-10T06:03:28;102584.34;;;14.18;100.00
72438;BME280;60444;43.534;-5.674;2023-05-10T06:05:53;102573.78;;;14.09;100.00
72438;BME280;60444;43.534;-5.674;2023-05-10T06:08:19;102587.63;;;14.29;100.00
72438;BME280;60444;43.534;-5.674;2023-05-10T06:10:45;102591.22;;;14.29;100.00
72438;BME280;60444;43.534;-5.674;2023-05-10T06:13:11;102582.16;;;14.29;100.00
72438;BME280;60444;43.534;-5.674;2023-05-10T06:15:36;102575.00;;;14.26;100.00
72438;BME280;60444;43.534;-5.674;2023-05-10T06:18:02;102584.72;;;14.33;100.00
72438;BME280;60444;43.534;-5.674;2023-05-10T06:20:28;102600.56;;;14.47;100.00
72438;BME280;60444;43.534;-5.674;2023-05-10T06:22:53;102603.94;;;14.53;100.00
72438;BME280;60444;43.534;-5.674;2023-05-10T06:25:19;102599.38;;;14.54;100.00
72438;BME280;60444;43.534;-5.674;2023-05-10T06:27:44;102599.50;;;14.51;100.00
72438;BME280;60444;43.534;-5.674;2023-05-10T06:30:10;102604.88;;;14.52;100.00
72438;BME280;60444;43.534;-5.674;2023-05-10T06:32:38;102601.16;;;14.55;100.00
72438;BME280;60444;43.534;-5.674;2023-05-10T06:35:04;102566.41;;;14.38;100.00
72438;BME280;60444;43.534;-5.674;2023-05-10T06:37:29;102593.81;;;14.57;100.00
72438;BME280;60444;43.534;-5.674;2023-05-10T06:39:55;102589.25;;;14.57;100.00
72438;BME280;60444;43.534;-5.674;2023-05-10T06:42:21;102558.31;;;14.35;100.00
72438;BME280;60444;43.534;-5.674;2023-05-10T06:44:46;102586.47;;;14.59;100.00
72438;BME280;60444;43.534;-5.674;2023-05-10T06:47:12;102584.31;;;14.69;100.00
72438;BME280;60444;43.534;-5.674;2023-05-10T06:49:37;102568.47;;;14.55;100.00
72438;BME280;60444;43.534;-5.674;2023-05-10T06:52:03;102574.53;;;14.63;100.00
72438;BME280;60444;43.534;-5.674;2023-05-10T06:54:29;102557.63;;;14.53;100.00
72438;BME280;60444;43.534;-5.674;2023-05-10T06:56:56;102551.97;;;14.60;100.00
72438;BME280;60444;43.534;-5.674;2023-05-10T06:59:21;102568.19;;;14.63;100.00
72438;BME280;60444;43.534;-5.674;2023-05-10T07:01:47;102568.88;;;14.69;100.00
72438;BME280;60444;43.534;-5.674;2023-05-10T07:04:13;102580.81;;;14.88;100.00
72438;BME280;60444;43.534;-5.674;2023-05-10T07:06:38;102557.69;;;14.77;100.00
72438;BME280;60444;43.534;-5.674;2023-05-10T07:09:04;102553.81;;;14.82;100.00
72438;BME280;60444;43.534;-5.674;2023-05-10T07:11:29;102557.19;;;14.89;100.00
72438;BME280;60444;43.534;-5.674;2023-05-10T07:13:55;102559.56;;;14.98;100.00
72438;BME280;60444;43.534;-5.674;2023-05-10T07:16:21;102572.69;;;15.10;100.00
72438;BME280;60444;43.534;-5.674;2023-05-10T07:18:46;102581.94;;;15.29;100.00
72438;BME280;60444;43.534;-5.674;2023-05-10T07:21:12;102581.81;;;15.32;100.00
72438;BME280;60444;43.534;-5.674;2023-05-10T07:23:38;102573.38;;;15.38;100.00
72438;BME280;60444;43.534;-5.674;2023-05-10T07:26:03;102563.78;;;15.28;100.00
72438;BME280;60444;43.534;-5.674;2023-05-10T07:28:29;102554.91;;;15.23;100.00
72438;BME280;60444;43.534;-5.674;2023-05-10T07:30:54;102560.63;;;15.38;100.00
72438;BME280;60444;43.534;-5.674;2023-05-10T07:33:20;102571.19;;;15.47;100.00
72438;BME280;60444;43.534;-5.674;2023-05-10T07:35:46;102560.94;;;15.54;100.00
72438;BME280;60444;43.534;-5.674;2023-05-10T07:38:11;102576.16;;;15.60;100.00
72438;BME280;60444;43.534;-5.674;2023-05-10T07:40:37;102560.41;;;15.66;100.00
72438;BME280;60444;43.534;-5.674;2023-05-10T07:43:03;102549.72;;;15.60;100.00
72438;BME280;60444;43.534;-5.674;2023-05-10T07:45:29;102564.97;;;15.66;100.00
72438;BME280;60444;43.534;-5.674;2023-05-10T07:47:54;102589.56;;;15.86;100.00
72438;BME280;60444;43.534;-5.674;2023-05-10T07:50:20;102567.13;;;15.79;100.00
72438;BME280;60444;43.534;-5.674;2023-05-10T07:52:47;102598.81;;;16.03;100.00
72438;BME280;60444;43.534;-5.674;2023-05-10T07:55:13;102601.75;;;15.99;100.00
72438;BME280;60444;43.534;-5.674;2023-05-10T07:57:38;102567.66;;;15.87;100.00
72438;BME280;60444;43.534;-5.674;2023-05-10T08:00:05;102606.81;;;16.08;100.00
72438;BME280;60444;43.534;-5.674;2023-05-10T08:02:30;102588.91;;;16.01;100.00
72438;BME280;60444;43.534;-5.674;2023-05-10T08:04:56;102549.03;;;15.77;100.00
72438;BME280;60444;43.534;-5.674;2023-05-10T08:07:24;102603.03;;;16.10;100.00
72438;BME280;60444;43.534;-5.674;2023-05-10T08:09:49;102608.16;;;16.18;100.00
72438;BME280;60444;43.534;-5.674;2023-05-10T08:12:15;102611.88;;;16.17;100.00
72438;BME280;60444;43.534;-5.674;2023-05-10T08:14:40;102597.31;;;16.16;100.00
72438;BME280;60444;43.534;-5.674;2023-05-10T08:17:06;102589.06;;;16.18;100.00
72438;BME280;60444;43.534;-5.674;2023-05-10T08:19:31;102622.19;;;16.30;100.00
72438;BME280;60444;43.534;-5.674;2023-05-10T08:21:57;102618.44;;;16.33;100.00
72438;BME280;60444;43.534;-5.674;2023-05-10T08:24:23;102617.13;;;16.41;100.00
72438;BME280;60444;43.534;-5.674;2023-05-10T08:26:48;102586.25;;;16.19;100.00
72438;BME280;60444;43.534;-5.674;2023-05-10T08:29:14;102599.41;;;16.31;100.00
72438;BME280;60444;43.534;-5.674;2023-05-10T08:31:40;102599.41;;;16.31;100.00
72438;BME280;60444;43.534;-5.674;2023-05-10T08:34:06;102592.69;;;16.38;100.00
72438;BME280;60444;43.534;-5.674;2023-05-10T08:36:32;102609.53;;;16.49;100.00
72438;BME280;60444;43.534;-5.674;2023-05-10T08:38:57;102605.19;;;16.44;100.00
72438;BME280;60444;43.534;-5.674;2023-05-10T08:41:24;102600.75;;;16.41;100.00
72438;BME280;60444;43.534;-5.674;2023-05-10T08:43:51;102615.53;;;16.57;100.00
72438;BME280;60444;43.534;-5.674;2023-05-10T08:46:19;102600.63;;;16.44;100.00
72438;BME280;60444;43.534;-5.674;2023-05-10T08:48:46;102604.59;;;16.57;100.00
72438;BME280;60444;43.534;-5.674;2023-05-10T08:51:22;102606.47;;;16.57;100.00
72438;BME280;60444;43.534;-5.674;2023-05-10T08:53:47;102602.84;;;16.56;100.00
72438;BME280;60444;43.534;-5.674;2023-05-10T08:56:13;102603.50;;;16.62;100.00
72438;BME280;60444;43.534;-5.674;2023-05-10T08:58:40;102600.50;;;16.68;100.00
72438;BME280;60444;43.534;-5.674;2023-05-10T09:01:07;102581.66;;;16.62;100.00
72438;BME280;60444;43.534;-5.674;2023-05-10T09:03:33;102602.00;;;16.75;100.00
72438;BME280;60444;43.534;-5.674;2023-05-10T09:05:58;102610.03;;;16.78;100.00
72438;BME280;60444;43.534;-5.674;2023-05-10T09:08:27;102542.19;;;16.48;100.00
72438;BME280;60444;43.534;-5.674;2023-05-10T09:10:54;102609.78;;;16.84;100.00
72438;BME280;60444;43.534;-5.674;2023-05-10T09:13:21;102517.03;;;16.40;100.00
72438;BME280;60444;43.534;-5.674;2023-05-10T09:15:48;102606.69;;;16.91;100.00
72438;BME280;60444;43.534;-5.674;2023-05-10T09:18:15;102605.50;;;16.97;100.00
72438;BME280;60444;43.534;-5.674;2023-05-10T09:20:44;102566.19;;;16.81;100.00
72438;BME280;60444;43.534;-5.674;2023-05-10T09:23:10;102576.00;;;16.85;100.00
72438;BME280;60444;43.534;-5.674;2023-05-10T09:25:35;102605.88;;;17.08;100.00
72438;BME280;60444;43.534;-5.674;2023-05-10T09:28:06;102612.03;;;17.13;100.00
72438;BME280;60444;43.534;-5.674;2023-05-10T09:30:32;102591.16;;;16.92;100.00
72438;BME280;60444;43.534;-5.674;2023-05-10T09:32:59;102615.19;;;17.04;100.00
72438;BME280;60444;43.534;-5.674;2023-05-10T09:35:29;102625.16;;;17.05;100.00
72438;BME280;60444;43.534;-5.674;2023-05-10T09:38:04;102593.09;;;16.90;100.00
72438;BME280;60444;43.534;-5.674;2023-05-10T09:40:30;102581.53;;;16.83;100.00
72438;BME280;60444;43.534;-5.674;2023-05-10T09:43:01;102615.41;;;16.99;100.00
72438;BME280;60444;43.534;-5.674;2023-05-10T09:45:31;102622.66;;;17.00;100.00
72438;BME280;60444;43.534;-5.674;2023-05-10T09:47:58;102590.63;;;16.84;100.00
72438;BME280;60444;43.534;-5.674;2023-05-10T09:50:24;102611.50;;;17.05;100.00
72438;BME280;60444;43.534;-5.674;2023-05-10T09:52:59;102610.41;;;17.09;100.00
72438;BME280;60444;43.534;-5.674;2023-05-10T09:55:38;102611.28;;;17.09;100.00
72438;BME280;60444;43.534;-5.674;2023-05-10T09:58:04;102610.84;;;17.18;100.00
72438;BME280;60444;43.534;-5.674;2023-05-10T10:00:38;102612.41;;;17.24;100.00
72438;BME280;60444;43.534;-5.674;2023-05-10T10:03:04;102602.72;;;17.35;100.00
72438;BME280;60444;43.534;-5.674;2023-05-10T10:05:30;102609.66;;;17.42;100.00
72438;BME280;60444;43.534;-5.674;2023-05-10T10:09:39;102604.66;;;17.52;100.00
72438;BME280;60444;43.534;-5.674;2023-05-10T10:12:14;102561.03;;;17.30;100.00
72438;BME280;60444;43.534;-5.674;2023-05-10T10:14:40;102585.22;;;17.58;100.00
72438;BME280;60444;43.534;-5.674;2023-05-10T10:17:05;102573.44;;;17.56;100.00
72438;BME280;60444;43.534;-5.674;2023-05-10T10:19:33;102590.78;;;17.74;100.00
72438;BME280;60444;43.534;-5.674;2023-05-10T10:22:00;102593.88;;;17.85;100.00
72438;BME280;60444;43.534;-5.674;2023-05-10T10:24:25;102607.84;;;17.97;100.00
72438;BME280;60444;43.534;-5.674;2023-05-10T10:26:53;102600.34;;;18.01;100.00
72438;BME280;60444;43.534;-5.674;2023-05-10T10:29:28;102593.75;;;18.05;100.00
72438;BME280;60444;43.534;-5.674;2023-05-10T10:32:18;102581.00;;;18.04;100.00
72438;BME280;60444;43.534;-5.674;2023-05-10T10:34:46;102560.47;;;17.95;100.00
72438;BME280;60444;43.534;-5.674;2023-05-10T10:37:12;102586.91;;;18.13;100.00
72438;BME280;60444;43.534;-5.674;2023-05-10T10:39:38;102588.13;;;18.25;100.00
72438;BME280;60444;43.534;-5.674;2023-05-10T10:42:04;102591.41;;;18.31;100.00
72438;BME280;60444;43.534;-5.674;2023-05-10T10:52:36;102583.69;;;18.22;100.00
72438;BME280;60444;43.534;-5.674;2023-05-10T11:03:05;102564.97;;;18.13;100.00
72438;BME280;60444;43.534;-5.674;2023-05-10T11:05:47;102580.44;;;18.31;100.00
72438;BME280;60444;43.534;-5.674;2023-05-10T11:08:35;102574.06;;;18.31;100.00
72438;BME280;60444;43.534;-5.674;2023-05-10T11:11:07;102567.06;;;18.25;100.00
72438;BME280;60444;43.534;-5.674;2023-05-10T11:13:43;102573.94;;;18.34;100.00
72438;BME280;60444;43.534;-5.674;2023-05-10T11:16:14;102548.56;;;18.13;100.00
72438;BME280;60444;43.534;-5.674;2023-05-10T11:18:40;102575.78;;;18.33;100.00
72438;BME280;60444;43.534;-5.674;2023-05-10T11:21:09;102547.84;;;18.27;100.00
72438;BME280;60444;43.534;-5.674;2023-05-10T11:23:50;102568.09;;;18.40;100.00
72438;BME280;60444;43.534;-5.674;2023-05-10T11:26:16;102545.47;;;18.36;100.00
72438;BME280;60444;43.534;-5.674;2023-05-10T11:28:45;102536.44;;;18.34;100.00
72438;BME280;60444;43.534;-5.674;2023-05-10T11:31:16;102538.72;;;18.43;100.00
72438;BME280;60444;43.534;-5.674;2023-05-10T11:33:46;102555.94;;;18.63;100.00
72438;BME280;60444;43.534;-5.674;2023-05-10T11:36:15;102541.13;;;18.67;100.00
72438;BME280;60444;43.534;-5.674;2023-05-10T11:38:40;102539.63;;;18.77;100.00
72438;BME280;60444;43.534;-5.674;2023-05-10T11:41:11;102543.78;;;18.84;100.00
72438;BME280;60444;43.534;-5.674;2023-05-10T11:43:39;102534.16;;;18.92;97.85
72438;BME280;60444;43.534;-5.674;2023-05-10T11:46:10;102537.69;;;18.94;96.58
72438;BME280;60444;43.534;-5.674;2023-05-10T11:48:38;102546.72;;;18.81;94.64
72438;BME280;60444;43.534;-5.674;2023-05-10T11:51:03;102517.16;;;18.70;96.60
72438;BME280;60444;43.534;-5.674;2023-05-10T11:53:31;102545.13;;;18.92;97.83
72438;BME280;60444;43.534;-5.674;2023-05-10T11:56:08;102538.78;;;18.92;100.00
72438;BME280;60444;43.534;-5.674;2023-05-10T11:58:35;102531.97;;;18.99;100.00
72438;BME280;60444;43.534;-5.674;2023-05-10T12:01:01;102533.13;;;18.95;97.76
72438;BME280;60444;43.534;-5.674;2023-05-10T12:03:28;102515.22;;;18.88;100.00
72438;BME280;60444;43.534;-5.674;2023-05-10T12:05:55;102497.78;;;18.89;100.00
72438;BME280;60444;43.534;-5.674;2023-05-10T12:08:22;102514.25;;;18.89;89.54
72438;BME280;60444;43.534;-5.674;2023-05-10T12:10:48;102529.47;;;18.94;84.22
72438;BME280;60444;43.534;-5.674;2023-05-10T12:13:14;102529.03;;;19.02;94.34
72438;BME280;60444;43.534;-5.674;2023-05-10T12:15:41;102524.97;;;19.09;96.21
72438;BME280;60444;43.534;-5.674;2023-05-10T12:18:13;102508.63;;;19.07;100.00
72438;BME280;60444;43.534;-5.674;2023-05-10T12:20:40;102520.06;;;19.15;90.21
72438;BME280;60444;43.534;-5.674;2023-05-10T12:23:08;102520.38;;;19.25;85.09
72438;BME280;60444;43.534;-5.674;2023-05-10T12:25:38;102517.63;;;19.25;86.58
72438;BME280;60444;43.534;-5.674;2023-05-10T12:28:06;102533.66;;;19.17;83.77
72438;BME280;60444;43.534;-5.674;2023-05-10T12:30:33;102518.34;;;19.13;85.88
72438;BME280;60444;43.534;-5.674;2023-05-10T12:33:06;102527.28;;;19.16;85.73
72438;BME280;60444;43.534;-5.674;2023-05-10T12:35:33;102541.44;;;19.09;86.90
72438;BME280;60444;43.534;-5.674;2023-05-10T12:37:59;102513.91;;;18.95;91.41
72438;BME280;60444;43.534;-5.674;2023-05-10T12:40:25;102505.69;;;18.95;99.63
72438;BME280;60444;43.534;-5.674;2023-05-10T12:42:50;102528.72;;;19.08;84.04
72438;BME280;60444;43.534;-5.674;2023-05-10T12:45:17;102526.91;;;19.07;82.88
72438;BME280;60444;43.534;-5.674;2023-05-10T12:47:42;102515.53;;;18.99;80.81
72438;BME280;60444;43.534;-5.674;2023-05-10T12:50:08;102512.22;;;18.92;80.72
72438;BME280;60444;43.534;-5.674;2023-05-10T12:52:34;102527.81;;;19.07;76.82
72438;BME280;60444;43.534;-5.674;2023-05-10T12:55:00;102522.22;;;19.09;79.43
72438;BME280;60444;43.534;-5.674;2023-05-10T12:57:26;102529.59;;;19.24;76.25